Emporia, KS

5:47 PM CDT on August 28, 2016 (GMT -0500)
Timmerman School Area | | Change Station
Active Advisory: Severe Thunderstorm Warning Active Notice: Local Storm Report

Elev 1214 ft 38.43 °N, 96.22 °W | Updated 9 seconds ago

Overcast
Overcast
81.3 °F
Feels Like 79 °F
N
8.7
Wind Variable Wind from East
Gusts 9.8 mph

Today
High -- | Low -- °F
--% Chance of Precip.
Yesterday
High -- | Low -- °F
Precip. -- in
Pressure 30.06 in
Visibility 10.0 miles
Clouds Few 7000 ft
Scattered Clouds 10000 ft
Mostly Cloudy 12000 ft
Heat Index 79 °F
Dew Point 22 °F
Humidity 11%
Rainfall 0.00 in
Snow Depth Not available.
6:51 AM 7:59 PM
Waning Crescent, 13% visible
SPECI KEMP 282238Z AUTO 12004KT 10SM -RA FEW070 SCT100 BKN120 24/20 A3006 RMK AO2 PK WND 17043/2159 LTG DSNT N-SE TSE32 P0058 T02390200
Pressure 30.06 in
Visibility 10.0 miles
Clouds Few 7000 ft
Scattered Clouds 10000 ft
Mostly Cloudy 12000 ft
Heat Index 79 °F
Dew Point 22 °F
Humidity 11%
Rainfall 0.00 in
Snow Depth Not available.
6:51 AM 7:59 PM
Waning Crescent, 13% visible
SPECI KEMP 282238Z AUTO 12004KT 10SM -RA FEW070 SCT100 BKN120 24/20 A3006 RMK AO2 PK WND 17043/2159 LTG DSNT N-SE TSE32 P0058 T02390200

10-Day Weather Forecast

Almanac

Astronomy

Aug. 28, 2016 Rise Set
Actual Time
Civil Twilight
Nautical Twilight
Astronomical Twilight
Moon
Length of Visible Light
Length of Day
Tomorrow will be .
, % of the Moon is Illuminated

Today's Extremes

State Highs State Lows

Community

WunderPhotos

Upload Photos

1,935,705 photos uploaded!

WunderBlog® & News

Nearby

Air Quality

  Air Quality AQ Index Pollutant
Not available.

Snow Depth

Station Depth Elevation

Earthquake Activity

City Distance Mag. Time & Date
Minimum magnitude displayed is 2.5.

Coastal Water Temperatures

Place Temperature

Stations

Nearby Weather Stations

Station Location Temp. Windchill Dew Point Humidity Wind Precip. Elev Updated Type
                   

Watches & Warnings

Severe Thunderstorm Warning
Issued: 5:26 PM CDT Aug. 28, 2016 – National Weather Service

The National Weather Service in Topeka has issued a

* Severe Thunderstorm Warning for...
southwestern Coffey County in east central Kansas...
southeastern Lyon County in east central Kansas...

* until 600 PM CDT

* at 525 PM CDT... a severe thunderstorm was located 4 miles northwest
of Gridley... moving north at 20 mph.

Hazard... 60 mph wind gusts and quarter size hail.

Source... radar indicated.

Impact... hail damage to vehicles is expected. Expect wind damage
           to roofs... siding... and trees.

* Locations impacted include...
Hartford and Gridley.

Precautionary/preparedness actions...

For your protection move to an interior room on the lowest floor of a
building.


Lat... Lon 3817 9596 3817 9605 3831 9608 3832 9583
      3809 9581 3809 9596
time... Mot... loc 2225z 175deg 19kt 3816 9594

Hail... 1.00in
wind... 60mph


27